createdAt,value
2018-10-09T00:00:12.229Z,84.75
2018-10-09T00:02:42.825Z,84.53
2018-10-09T00:05:12.164Z,84.79
2018-10-09T00:07:42.889Z,85.33
2018-10-09T00:10:12.744Z,85.60
2018-10-09T00:12:42.004Z,84.92
2018-10-09T00:15:11.321Z,85.09
2018-10-09T00:17:41.763Z,85.31
2018-10-09T00:20:15.940Z,85.38
2018-10-09T00:22:44.282Z,84.76
2018-10-09T00:25:13.625Z,84.96
2018-10-09T00:27:42.769Z,84.76
2018-10-09T00:30:11.741Z,84.68
2018-10-09T00:32:40.833Z,85.32
2018-10-09T00:35:11.225Z,84.76
2018-10-09T00:37:42.000Z,84.82
2018-10-09T00:40:11.748Z,85.55
2018-10-09T00:42:40.750Z,85.72
2018-10-09T00:45:11.090Z,85.51
2018-10-09T00:47:41.507Z,85.05
2018-10-09T00:50:11.832Z,84.96
2018-10-09T00:52:42.600Z,85.06
2018-10-09T00:55:11.817Z,85.38
2018-10-09T00:57:42.408Z,85.23
2018-10-09T01:00:11.854Z,84.69
2018-10-09T01:02:42.573Z,85.26
2018-10-09T01:05:11.800Z,84.85
2018-10-09T01:07:42.085Z,85.05
2018-10-09T01:10:11.369Z,85.09
2018-10-09T01:12:42.101Z,85.70
2018-10-09T01:15:11.544Z,85.13
2018-10-09T01:17:41.617Z,85.67
2018-10-09T01:20:11.412Z,85.44
2018-10-09T01:22:41.320Z,85.40
2018-10-09T01:25:11.140Z,85.33
2018-10-09T01:27:41.082Z,85.59
2018-10-09T01:30:11.220Z,85.65
2018-10-09T01:32:41.128Z,85.23
2018-10-09T01:35:13.193Z,85.06
2018-10-09T01:37:42.822Z,84.69
2018-10-09T01:40:11.747Z,83.95
2018-10-09T01:42:41.257Z,83.99
2018-10-09T01:45:12.132Z,84.69
2018-10-09T01:47:41.602Z,84.76
2018-10-09T01:50:10.989Z,84.69
2018-10-09T01:52:39.945Z,84.31
2018-10-09T01:55:10.147Z,84.77
2018-10-09T01:57:40.832Z,84.51
2018-10-09T02:00:10.841Z,84.87
2018-10-09T02:02:40.667Z,85.14
2018-10-09T02:05:10.380Z,84.82
2018-10-09T02:07:39.968Z,84.74
2018-10-09T02:10:09.877Z,85.01
2018-10-09T02:12:40.198Z,85.21
2018-10-09T02:15:09.789Z,85.57
2018-10-09T02:17:39.822Z,85.01
2018-10-09T02:20:10.739Z,85.75
2018-10-09T02:22:40.956Z,85.18
2018-10-09T02:25:11.416Z,85.27
2018-10-09T02:27:42.079Z,86.00
2018-10-09T02:30:11.908Z,86.06
2018-10-09T02:32:42.237Z,85.98
2018-10-09T02:35:11.178Z,86.07
2018-10-09T02:37:41.797Z,85.67
2018-10-09T02:40:11.149Z,85.73
2018-10-09T02:42:41.372Z,85.45
2018-10-09T02:45:11.432Z,85.48
2018-10-09T02:47:41.776Z,85.62
2018-10-09T02:50:11.200Z,85.05
2018-10-09T02:52:41.140Z,85.21
2018-10-09T02:55:11.384Z,85.28
2018-10-09T02:57:41.188Z,85.13
2018-10-09T03:00:12.664Z,85.19
2018-10-09T03:02:42.043Z,85.66
2018-10-09T03:05:11.962Z,85.92
2018-10-09T03:07:42.268Z,85.79
2018-10-09T03:10:11.392Z,85.77
2018-10-09T03:12:41.200Z,85.47
2018-10-09T03:15:11.241Z,85.74
2018-10-09T03:17:41.848Z,85.65
2018-10-09T03:20:11.820Z,86.20
2018-10-09T03:22:42.020Z,85.72
2018-10-09T03:25:11.193Z,86.39
2018-10-09T03:27:41.533Z,85.92
2018-10-09T03:30:12.737Z,86.14
2018-10-09T03:32:42.109Z,86.32
2018-10-09T03:35:12.717Z,86.41
2018-10-09T03:37:42.068Z,85.97
2018-10-09T03:40:11.477Z,86.10
2018-10-09T03:42:41.941Z,86.61
2018-10-09T03:45:11.781Z,86.37
2018-10-09T03:47:41.851Z,86.40
2018-10-09T03:50:12.411Z,86.76
2018-10-09T03:52:42.064Z,86.72
2018-10-09T03:55:12.841Z,86.46
2018-10-09T03:57:42.096Z,86.75
2018-10-09T04:00:12.350Z,86.89
2018-10-09T04:02:41.744Z,86.65
2018-10-09T04:05:10.652Z,86.34
2018-10-09T04:07:40.621Z,86.49
2018-10-09T04:10:11.148Z,86.54
2018-10-09T04:12:41.201Z,86.45
2018-10-09T04:15:11.908Z,86.62
2018-10-09T04:17:41.205Z,86.64
2018-10-09T04:20:11.784Z,86.39
2018-10-09T04:22:40.649Z,86.36
2018-10-09T04:25:10.692Z,86.34
2018-10-09T04:27:41.356Z,86.47
2018-10-09T04:30:11.489Z,86.30
2018-10-09T04:32:41.586Z,86.13
2018-10-09T04:35:12.305Z,86.46
2018-10-09T04:37:41.648Z,86.54
2018-10-09T04:40:12.477Z,86.14
2018-10-09T04:42:42.361Z,86.16
2018-10-09T04:45:12.637Z,86.26
2018-10-09T04:47:42.028Z,86.62
2018-10-09T04:50:11.077Z,86.36
2018-10-09T04:52:41.462Z,86.43
2018-10-09T04:55:11.460Z,86.29
2018-10-09T04:57:41.620Z,85.99
2018-10-09T05:00:11.561Z,86.26
2018-10-09T05:02:41.830Z,86.55
2018-10-09T05:05:11.748Z,86.33
2018-10-09T05:07:41.084Z,86.57
2018-10-09T05:10:10.454Z,86.71
2018-10-09T05:12:41.372Z,86.77
2018-10-09T05:15:11.761Z,86.91
2018-10-09T05:17:41.738Z,87.19
2018-10-09T05:20:10.976Z,87.00
2018-10-09T05:22:46.760Z,86.58
2018-10-09T05:25:15.101Z,86.54
2018-10-09T05:27:44.352Z,87.11
2018-10-09T05:30:13.592Z,87.01
2018-10-09T05:32:43.464Z,86.94
2018-10-09T05:35:11.796Z,86.29
2018-10-09T05:37:41.857Z,86.76
2018-10-09T05:40:12.345Z,86.19
2018-10-09T05:42:41.974Z,86.19
2018-10-09T05:45:12.422Z,86.59
2018-10-09T05:47:43.081Z,86.35
2018-10-09T05:50:12.336Z,86.19
2018-10-09T05:52:43.003Z,86.24
2018-10-09T05:55:12.305Z,86.33
2018-10-09T05:57:43.115Z,86.70
2018-10-09T06:00:12.304Z,86.49
2018-10-09T06:02:42.024Z,86.31
2018-10-09T06:05:12.288Z,86.30
2018-10-09T06:07:43.009Z,87.09
2018-10-09T06:10:13.668Z,86.71
2018-10-09T06:12:42.950Z,87.14
2018-10-09T06:15:12.188Z,87.21
2018-10-09T06:17:42.061Z,86.47
2018-10-09T06:20:12.353Z,86.77
2018-10-09T06:22:41.697Z,86.65
2018-10-09T06:25:11.469Z,86.69
2018-10-09T06:27:41.687Z,86.57
2018-10-09T06:30:12.192Z,86.87
2018-10-09T06:32:42.265Z,85.84
2018-10-09T06:35:12.028Z,86.38
2018-10-09T06:37:42.776Z,85.90
2018-10-09T06:40:12.134Z,85.98
2018-10-09T06:42:41.488Z,86.27
2018-10-09T06:45:09.910Z,86.05
2018-10-09T06:47:41.317Z,86.09
2018-10-09T06:50:11.693Z,86.66
2018-10-09T06:52:42.544Z,86.01
2018-10-09T06:55:12.577Z,86.00
2018-10-09T06:57:42.001Z,86.33
2018-10-09T07:00:11.265Z,86.58
2018-10-09T07:02:41.437Z,86.39
2018-10-09T07:05:09.862Z,86.55
2018-10-09T07:07:40.709Z,85.91
2018-10-09T07:10:10.941Z,85.79
2018-10-09T07:12:40.238Z,84.80
2018-10-09T07:15:10.527Z,84.54
2018-10-09T07:17:40.466Z,84.54
2018-10-09T07:20:10.458Z,82.10
2018-10-09T07:22:39.846Z,81.76
2018-10-09T07:25:09.363Z,81.75
2018-10-09T07:27:39.982Z,80.87
2018-10-09T07:30:11.096Z,80.81
2018-10-09T07:32:41.305Z,79.37
2018-10-09T07:35:12.334Z,79.25
2018-10-09T07:37:43.148Z,79.48
2018-10-09T07:40:12.553Z,78.68
2018-10-09T07:42:42.845Z,78.24
2018-10-09T07:45:12.067Z,78.78
2018-10-09T07:47:41.396Z,79.69
2018-10-09T07:50:11.769Z,79.03
2018-10-09T07:52:41.929Z,78.19
2018-10-09T07:55:11.867Z,77.79
2018-10-09T07:57:41.743Z,78.18
2018-10-09T08:00:11.769Z,78.35
2018-10-09T08:02:42.469Z,78.07
2018-10-09T08:05:12.698Z,78.27
2018-10-09T08:07:41.757Z,78.05
2018-10-09T08:10:10.709Z,78.25
2018-10-09T08:12:40.752Z,77.96
2018-10-09T08:15:10.365Z,77.85
2018-10-09T08:17:41.761Z,76.97
2018-10-09T08:20:12.213Z,76.09
2018-10-09T08:22:43.190Z,74.33
2018-10-09T08:25:12.361Z,74.88
2018-10-09T08:27:41.885Z,75.28
2018-10-09T08:30:11.638Z,73.88
2018-10-09T08:32:42.456Z,73.05
2018-10-09T08:35:11.903Z,73.65
2018-10-09T08:37:41.620Z,74.42
2018-10-09T08:40:11.782Z,73.65
2018-10-09T08:42:41.574Z,72.62
2018-10-09T08:45:12.701Z,73.14
2018-10-09T08:47:42.101Z,71.90
2018-10-09T08:50:12.853Z,72.50
2018-10-09T08:52:42.118Z,71.00
2018-10-09T08:55:12.189Z,71.68
2018-10-09T08:57:42.972Z,70.69
2018-10-09T09:00:12.342Z,69.92
2018-10-09T09:02:41.793Z,70.71
2018-10-09T09:05:12.097Z,70.44
2018-10-09T09:07:41.473Z,70.05
2018-10-09T09:10:11.785Z,70.44
2018-10-09T09:12:41.910Z,69.74
2018-10-09T09:15:12.837Z,68.33
2018-10-09T09:17:42.373Z,67.56
2018-10-09T09:20:11.726Z,67.33
2018-10-09T09:22:43.081Z,65.92
2018-10-09T09:25:12.086Z,65.94
2018-10-09T09:27:41.532Z,66.02
2018-10-09T09:30:11.768Z,66.25
2018-10-09T09:32:42.450Z,67.19
2018-10-09T09:35:13.226Z,67.25
2018-10-09T09:37:42.997Z,67.45
2018-10-09T09:40:12.226Z,66.21
2018-10-09T09:42:43.069Z,66.60
2018-10-09T09:45:12.306Z,66.55
2018-10-09T09:47:42.953Z,67.12
2018-10-09T09:50:12.309Z,67.21
2018-10-09T09:52:41.578Z,66.48
2018-10-09T09:55:11.355Z,67.07
2018-10-09T09:57:41.781Z,66.76
2018-10-09T10:00:17.499Z,66.58
2018-10-09T10:02:46.783Z,67.17
2018-10-09T10:05:16.197Z,65.23
2018-10-09T10:07:45.565Z,64.39
2018-10-09T10:10:14.838Z,64.33
2018-10-09T10:12:44.276Z,63.49
2018-10-09T10:15:13.537Z,62.73
2018-10-09T10:17:41.875Z,61.65
2018-10-09T10:20:12.320Z,61.91
2018-10-09T10:22:43.067Z,61.09
2018-10-09T10:25:12.156Z,59.58
2018-10-09T10:27:41.973Z,59.06
2018-10-09T10:30:12.689Z,58.75
2018-10-09T10:32:42.619Z,59.73
2018-10-09T10:35:12.116Z,60.95
2018-10-09T10:37:42.017Z,61.34
2018-10-09T10:40:12.771Z,60.80
2018-10-09T10:42:42.057Z,60.54
2018-10-09T10:45:12.482Z,60.01
2018-10-09T10:47:42.006Z,59.12
2018-10-09T10:50:12.328Z,58.91
2018-10-09T10:52:43.181Z,57.70
2018-10-09T10:55:12.541Z,58.47
2018-10-09T10:57:43.225Z,57.80
2018-10-09T11:00:14.021Z,57.98
2018-10-09T11:02:42.413Z,56.64
2018-10-09T11:05:13.081Z,56.05
2018-10-09T11:07:42.542Z,55.56
2018-10-09T11:10:13.286Z,55.13
2018-10-09T11:12:42.459Z,55.29
2018-10-09T11:15:13.174Z,54.36
2018-10-09T11:17:42.194Z,52.73
2018-10-09T11:20:13.157Z,53.86
2018-10-09T11:22:42.009Z,52.63
2018-10-09T11:25:12.474Z,53.65
2018-10-09T11:27:42.045Z,52.23
2018-10-09T11:30:12.446Z,51.41
2018-10-09T11:32:43.162Z,50.46
2018-10-09T11:35:13.448Z,49.68
2018-10-09T11:37:43.460Z,49.00
2018-10-09T11:40:13.617Z,48.91
2018-10-09T11:42:43.216Z,47.99
2018-10-09T11:45:13.782Z,47.88
2018-10-09T11:47:43.113Z,47.04
2018-10-09T11:50:12.503Z,48.26
2018-10-09T11:52:41.854Z,48.21
2018-10-09T11:55:12.062Z,45.80
2018-10-09T11:57:42.297Z,47.45
2018-10-09T12:00:11.672Z,46.44
2018-10-09T12:02:41.176Z,46.50
2018-10-09T12:05:11.132Z,45.37
2018-10-09T12:07:40.753Z,46.59
2018-10-09T12:10:11.141Z,46.56
2018-10-09T12:12:40.265Z,47.23
2018-10-09T12:15:09.717Z,47.60
2018-10-09T12:17:38.884Z,48.27
2018-10-09T12:20:07.270Z,47.70
2018-10-09T12:22:35.636Z,48.80
2018-10-09T12:25:04.001Z,47.71
2018-10-09T12:27:32.357Z,48.40
2018-10-09T12:30:00.694Z,47.73
2018-10-09T12:32:29.034Z,48.94
2018-10-09T12:34:57.403Z,47.83
2018-10-09T12:37:26.702Z,48.18
2018-10-09T12:39:56.061Z,48.35
2018-10-09T12:42:24.413Z,47.83
2018-10-09T12:44:52.762Z,47.25
2018-10-09T12:47:21.109Z,48.71
2018-10-09T12:49:49.447Z,48.13
2018-10-09T12:52:17.786Z,47.84
2018-10-09T12:54:46.193Z,47.88
2018-10-09T12:57:14.598Z,47.36
2018-10-09T12:59:43.442Z,47.48
2018-10-09T13:02:11.807Z,47.72
2018-10-09T13:04:43.567Z,48.21
2018-10-09T13:07:12.773Z,47.91
2018-10-09T13:09:42.130Z,48.15
2018-10-09T13:12:12.442Z,47.94
2018-10-09T13:14:43.097Z,48.09
2018-10-09T13:17:12.645Z,48.18
2018-10-09T13:19:41.864Z,49.30
2018-10-09T13:22:12.247Z,50.15
2018-10-09T13:24:43.012Z,50.02
2018-10-09T13:27:12.936Z,50.56
2018-10-09T13:29:42.269Z,49.99
2018-10-09T13:32:13.000Z,49.58
2018-10-09T13:34:42.152Z,49.88
2018-10-09T13:37:12.393Z,50.42
2018-10-09T13:39:41.827Z,50.93
2018-10-09T13:42:12.135Z,50.84
2018-10-09T13:44:41.488Z,49.90
2018-10-09T13:47:11.686Z,50.94
2018-10-09T13:49:42.344Z,51.02
2018-10-09T13:52:13.201Z,51.39
2018-10-09T13:54:43.721Z,51.27
2018-10-09T13:57:12.992Z,51.83
2018-10-09T13:59:42.154Z,52.32
2018-10-09T14:02:11.070Z,52.09
2018-10-09T14:04:41.082Z,52.50
2018-10-09T14:07:11.989Z,51.82
2018-10-09T14:09:42.620Z,52.41
2018-10-09T14:12:12.023Z,52.70
2018-10-09T14:14:41.875Z,51.04
2018-10-09T14:17:11.689Z,52.84
2018-10-09T14:19:41.425Z,51.95
2018-10-09T14:22:11.200Z,52.89
2018-10-09T14:24:41.229Z,52.91
2018-10-09T14:27:11.105Z,53.33
2018-10-09T14:29:41.461Z,54.00
2018-10-09T14:32:11.745Z,52.40
2018-10-09T14:34:42.104Z,53.40
2018-10-09T14:37:11.432Z,53.56
2018-10-09T14:39:41.129Z,53.25
2018-10-09T14:42:11.217Z,53.82
2018-10-09T14:44:40.860Z,53.85
2018-10-09T14:47:10.357Z,54.89
2018-10-09T14:49:39.825Z,55.24
2018-10-09T14:52:08.813Z,54.80
2018-10-09T14:54:37.949Z,55.43
2018-10-09T14:57:06.327Z,55.98
2018-10-09T14:59:34.674Z,56.00
2018-10-09T15:02:05.762Z,55.69
2018-10-09T15:04:34.145Z,56.17
2018-10-09T15:07:02.511Z,56.51
2018-10-09T15:09:31.030Z,56.57
2018-10-09T15:11:59.365Z,57.29
2018-10-09T15:14:27.702Z,57.70
2018-10-09T15:16:56.064Z,58.51
2018-10-09T15:19:24.422Z,58.82
2018-10-09T15:21:52.757Z,59.26
2018-10-09T15:24:21.091Z,59.42
2018-10-09T15:26:49.425Z,59.81
2018-10-09T15:29:17.766Z,60.22
2018-10-09T15:31:46.174Z,59.64
2018-10-09T15:34:14.572Z,59.99
2018-10-09T15:36:42.937Z,60.29
2018-10-09T15:39:13.177Z,60.11
2018-10-09T15:41:42.889Z,60.31
2018-10-09T15:44:12.078Z,60.10
2018-10-09T15:46:41.360Z,60.24
2018-10-09T15:49:11.297Z,61.01
2018-10-09T15:51:41.261Z,61.54
2018-10-09T15:54:11.718Z,61.79
2018-10-09T15:56:41.588Z,62.25
2018-10-09T15:59:11.649Z,62.76
2018-10-09T16:01:41.481Z,63.09
2018-10-09T16:04:11.354Z,63.58
2018-10-09T16:06:42.140Z,64.32
2018-10-09T16:09:12.149Z,64.57
2018-10-09T16:11:41.610Z,64.40
2018-10-09T16:14:11.472Z,64.22
2018-10-09T16:16:41.619Z,64.32
2018-10-09T16:19:12.989Z,64.36
2018-10-09T16:21:42.444Z,64.82
2018-10-09T16:24:11.414Z,64.79
2018-10-09T16:26:42.037Z,65.58
2018-10-09T16:29:12.017Z,65.71
2018-10-09T16:31:42.370Z,66.74
2018-10-09T16:34:11.733Z,66.90
2018-10-09T16:36:41.717Z,67.19
2018-10-09T16:39:13.248Z,67.52
2018-10-09T16:41:43.797Z,67.54
2018-10-09T16:44:13.774Z,68.69
2018-10-09T16:46:43.456Z,68.41
2018-10-09T16:49:12.705Z,68.74
2018-10-09T16:51:41.985Z,68.84
2018-10-09T16:54:11.414Z,69.64
2018-10-09T16:56:41.757Z,69.79
2018-10-09T16:59:11.674Z,70.28
2018-10-09T17:01:42.108Z,70.38
2018-10-09T17:04:12.653Z,70.85
2018-10-09T17:06:41.883Z,71.08
2018-10-09T17:09:12.165Z,71.49
2018-10-09T17:11:42.693Z,71.36
2018-10-09T17:14:12.668Z,71.25
2018-10-09T17:16:42.100Z,72.25
2018-10-09T17:19:12.078Z,72.59
2018-10-09T17:21:42.640Z,72.91
2018-10-09T17:24:11.867Z,73.90
2018-10-09T17:26:41.772Z,73.63
2018-10-09T17:29:12.023Z,74.50
2018-10-09T17:31:42.310Z,74.83
2018-10-09T17:34:13.329Z,74.74
2018-10-09T17:36:44.027Z,74.62
2018-10-09T17:39:13.619Z,74.67
2018-10-09T17:41:42.754Z,74.31
2018-10-09T17:44:12.456Z,74.65
2018-10-09T17:46:43.244Z,75.02
2018-10-09T17:49:13.430Z,74.91
2018-10-09T17:51:42.695Z,75.64
2018-10-09T17:54:12.577Z,75.91
2018-10-09T17:56:43.751Z,76.14
2018-10-09T17:59:13.005Z,76.21
2018-10-09T18:01:42.377Z,75.98
2018-10-09T18:04:12.573Z,76.47
2018-10-09T18:06:41.821Z,76.70
2018-10-09T18:09:12.993Z,77.06
2018-10-09T18:11:42.680Z,77.26
2018-10-09T18:14:12.565Z,77.42
2018-10-09T18:16:41.806Z,78.07
2018-10-09T18:19:11.866Z,78.06
2018-10-09T18:21:41.560Z,78.46
2018-10-09T18:24:11.626Z,78.81
2018-10-09T18:26:41.729Z,79.14
2018-10-09T18:29:11.851Z,79.20
2018-10-09T18:31:41.297Z,79.48
2018-10-09T18:34:10.946Z,79.43
2018-10-09T18:36:41.229Z,79.49
2018-10-09T18:39:13.966Z,79.62
2018-10-09T18:41:42.479Z,79.81
2018-10-09T18:44:13.425Z,80.01
2018-10-09T18:46:43.161Z,80.48
2018-10-09T18:49:12.238Z,80.82
2018-10-09T18:51:42.067Z,81.01
2018-10-09T18:54:12.063Z,80.99
2018-10-09T18:56:42.512Z,80.87
2018-10-09T18:59:12.080Z,81.02
2018-10-09T19:01:42.151Z,81.23
2018-10-09T19:04:12.798Z,81.53
2018-10-09T19:06:42.152Z,81.68
2018-10-09T19:09:12.921Z,81.67
2018-10-09T19:11:42.037Z,81.66
2018-10-09T19:14:11.918Z,81.62
2018-10-09T19:16:41.795Z,82.01
2018-10-09T19:19:11.442Z,82.01
2018-10-09T19:21:42.053Z,82.10
2018-10-09T19:24:12.565Z,82.31
2018-10-09T19:26:41.923Z,82.59
2018-10-09T19:29:12.670Z,82.54
2018-10-09T19:31:42.014Z,82.61
2018-10-09T19:34:11.877Z,82.92
2018-10-09T19:36:41.414Z,83.09
2018-10-09T19:39:12.874Z,83.10
2018-10-09T19:41:42.280Z,83.04
2018-10-09T19:44:12.063Z,83.24
2018-10-09T19:46:41.850Z,83.47
2018-10-09T19:49:12.349Z,83.48
2018-10-09T19:51:43.087Z,83.64
2018-10-09T19:54:11.913Z,83.53
2018-10-09T19:56:42.245Z,83.33
2018-10-09T19:59:12.346Z,83.36
2018-10-09T20:01:41.617Z,83.41
2018-10-09T20:04:11.370Z,83.54
2018-10-09T20:06:40.944Z,83.28
2018-10-09T20:09:13.068Z,83.45
2018-10-09T20:11:42.214Z,83.04
2018-10-09T20:14:13.556Z,83.43
2018-10-09T20:16:42.533Z,83.42
2018-10-09T20:19:12.620Z,83.51
2018-10-09T20:21:41.519Z,83.84
2018-10-09T20:24:11.993Z,83.92
2018-10-09T20:26:41.666Z,83.92
2018-10-09T20:29:11.794Z,83.97
2018-10-09T20:31:42.157Z,84.33
2018-10-09T20:34:12.301Z,84.32
2018-10-09T20:36:41.389Z,84.60
2018-10-09T20:39:10.812Z,84.60
2018-10-09T20:41:41.207Z,84.56
2018-10-09T20:44:10.922Z,84.71
2018-10-09T20:46:41.574Z,85.15
2018-10-09T20:49:11.918Z,85.73
2018-10-09T20:51:41.225Z,85.66
2018-10-09T20:54:13.322Z,85.79
2018-10-09T20:56:42.461Z,85.64
2018-10-09T20:59:11.538Z,86.08
2018-10-09T21:01:41.558Z,85.77
2018-10-09T21:04:11.872Z,86.26
2018-10-09T21:06:41.532Z,85.90
2018-10-09T21:09:13.494Z,85.99
2018-10-09T21:11:43.172Z,85.64
2018-10-09T21:14:13.553Z,85.92
2018-10-09T21:16:42.805Z,85.94
2018-10-09T21:19:13.021Z,85.72
2018-10-09T21:21:43.097Z,85.63
2018-10-09T21:24:12.327Z,85.82
2018-10-09T21:26:41.317Z,85.95
2018-10-09T21:29:10.413Z,85.87
2018-10-09T21:31:40.752Z,85.82
2018-10-09T21:34:09.782Z,86.07
2018-10-09T21:36:38.268Z,85.79
2018-10-09T21:39:10.496Z,86.21
2018-10-09T21:41:40.767Z,86.18
2018-10-09T21:44:10.506Z,86.44
2018-10-09T21:46:39.940Z,86.32
2018-10-09T21:49:09.590Z,86.39
2018-10-09T21:51:39.945Z,86.28
2018-10-09T21:54:11.318Z,86.11
2018-10-09T21:56:41.605Z,86.05
2018-10-09T21:59:11.517Z,85.80
2018-10-09T22:01:39.869Z,86.22
2018-10-09T22:04:10.303Z,86.38
2018-10-09T22:06:39.204Z,86.72
2018-10-09T22:09:08.304Z,86.43
2018-10-09T22:11:37.631Z,86.81
2018-10-09T22:14:06.041Z,86.49
2018-10-09T22:16:35.275Z,86.50
2018-10-09T22:19:04.689Z,86.44
2018-10-09T22:21:34.070Z,86.21
2018-10-09T22:24:03.318Z,86.31
2018-10-09T22:26:32.582Z,86.63
2018-10-09T22:29:01.803Z,86.38
2018-10-09T22:31:30.154Z,86.44
2018-10-09T22:33:59.409Z,86.34
2018-10-09T22:36:28.753Z,86.50
2018-10-09T22:38:57.106Z,86.46
2018-10-09T22:41:26.461Z,86.36
2018-10-09T22:43:55.768Z,86.30
2018-10-09T22:46:24.862Z,86.57
2018-10-09T22:48:54.131Z,86.78
2018-10-09T22:51:23.375Z,86.69
2018-10-09T22:53:51.756Z,86.30
2018-10-09T22:56:21.181Z,86.55
2018-10-09T22:58:50.587Z,86.34
2018-10-09T23:01:19.841Z,86.72
2018-10-09T23:03:49.218Z,86.80
2018-10-09T23:06:18.460Z,86.86
2018-10-09T23:08:47.974Z,87.04
2018-10-09T23:11:16.756Z,87.08
2018-10-09T23:13:45.524Z,87.28
2018-10-09T23:16:14.743Z,87.63
2018-10-09T23:18:44.092Z,87.33
2018-10-09T23:21:13.466Z,87.14
2018-10-09T23:23:42.726Z,87.02
2018-10-09T23:26:11.965Z,87.00
2018-10-09T23:28:42.089Z,86.85
2018-10-09T23:31:11.497Z,87.21
2018-10-09T23:33:42.504Z,87.28
2018-10-09T23:36:12.029Z,87.00
2018-10-09T23:38:42.316Z,87.36
2018-10-09T23:41:12.164Z,87.21
2018-10-09T23:43:42.829Z,87.34
2018-10-09T23:46:12.261Z,87.17
2018-10-09T23:48:41.925Z,87.55
2018-10-09T23:51:12.180Z,87.37
2018-10-09T23:53:41.965Z,87.25
2018-10-09T23:56:12.652Z,87.33
2018-10-09T23:58:42.021Z,87.62
